Time;durP1;ratioP1;P1;durP2;ratioP2;P2;SDS_P1;SDS_P2;PMS_P1;PMS_P2;Temp;Humidity;BMP_temperature;BMP_pressure;BME280_temperature;BME280_humidity;BME280_pressure;Samples;Min_cycle;Max_cycle;Signal;HPM_P1;HPM_P2
2023/08/07 00:00:31;;;;;;;5.40;3.47;;;16.30;99.90;;;;;;5074590;28;20056;-84
2023/08/07 00:02:57;;;;;;;7.75;3.33;;;16.30;99.90;;;;;;5075079;28;20045;-82
2023/08/07 00:05:23;;;;;;;5.47;3.35;;;16.30;99.90;;;;;;5074609;28;20165;-83
2023/08/07 00:07:48;;;;;;;5.28;3.30;;;16.30;99.90;;;;;;5075124;28;20032;-83
2023/08/07 00:10:14;;;;;;;7.70;4.00;;;16.30;99.90;;;;;;5076649;28;20044;-76
2023/08/07 00:12:40;;;;;;;5.68;3.90;;;16.30;99.90;;;;;;5091553;28;20044;-83
2023/08/07 00:15:06;;;;;;;7.85;3.95;;;16.30;99.90;;;;;;5075834;28;20048;-84
2023/08/07 00:17:32;;;;;;;6.82;3.47;;;16.20;99.90;;;;;;5040985;28;20078;-82
2023/08/07 00:19:58;;;;;;;6.10;3.78;;;16.20;99.90;;;;;;5074363;28;20040;-82
2023/08/07 00:22:25;;;;;;;5.07;3.20;;;16.20;99.90;;;;;;5074848;28;20161;-83
2023/08/07 00:24:50;;;;;;;11.07;3.33;;;16.10;99.90;;;;;;5073929;28;20040;-83
2023/08/07 00:27:16;;;;;;;9.10;2.78;;;16.10;99.90;;;;;;5075395;28;20055;-80
2023/08/07 00:29:42;;;;;;;5.88;2.70;;;16.10;99.90;;;;;;5075200;28;20052;-85
2023/08/07 00:32:08;;;;;;;5.40;2.42;;;16.00;99.90;;;;;;5090597;28;20054;-82
2023/08/07 00:34:34;;;;;;;4.18;2.40;;;16.00;99.90;;;;;;5074923;28;20071;-86
2023/08/07 00:37:00;;;;;;;5.40;2.35;;;15.90;99.90;;;;;;5051806;28;20048;-83
2023/08/07 00:39:26;;;;;;;5.68;2.70;;;15.90;99.90;;;;;;5075072;28;20079;-83
2023/08/07 00:41:51;;;;;;;3.65;2.13;;;15.80;99.90;;;;;;5075851;28;20040;-84
2023/08/07 00:44:17;;;;;;;6.20;2.40;;;15.80;99.90;;;;;;5075260;28;20052;-79
2023/08/07 00:46:43;;;;;;;3.95;2.33;;;15.80;99.90;;;;;;5053474;28;20092;-83
2023/08/07 00:49:11;;;;;;;9.50;2.70;;;15.80;99.90;;;;;;5054580;28;20049;-82
2023/08/07 00:51:38;;;;;;;4.72;2.50;;;15.80;99.90;;;;;;5065517;28;20072;-83
2023/08/07 00:54:07;;;;;;;5.40;2.25;;;15.80;99.90;;;;;;5073097;28;20058;-82
2023/08/07 00:56:33;;;;;;;7.97;2.90;;;15.80;99.90;;;;;;5094977;28;20068;-84
2023/08/07 00:59:00;;;;;;;8.65;2.85;;;15.80;99.90;;;;;;5060429;28;20102;-81
2023/08/07 01:01:27;;;;;;;4.18;2.30;;;15.80;99.90;;;;;;5056447;28;20511;-83
2023/08/07 01:03:53;;;;;;;4.28;2.35;;;15.80;99.90;;;;;;5071972;28;20040;-82
2023/08/07 01:06:18;;;;;;;5.70;2.55;;;15.80;99.90;;;;;;5074791;28;20371;-83
2023/08/07 01:08:45;;;;;;;6.13;2.58;;;15.80;99.90;;;;;;5073191;28;20163;-83
2023/08/07 01:11:30;;;;;;;6.72;3.08;;;15.80;99.90;;;;;;5073824;28;20048;-82
2023/08/07 01:14:07;;;;;;;5.78;2.78;;;15.80;99.90;;;;;;5074688;28;20063;-83
2023/08/07 01:16:51;;;;;;;8.23;2.90;;;15.80;99.90;;;;;;5073585;28;20041;-82
2023/08/07 01:19:31;;;;;;;8.65;3.20;;;15.80;99.90;;;;;;5073323;28;20048;-83
2023/08/07 01:22:14;;;;;;;5.03;2.60;;;15.80;99.90;;;;;;5069871;28;20040;-84
2023/08/07 01:24:43;;;;;;;3.83;2.35;;;15.80;99.90;;;;;;5099373;28;20083;-84
2023/08/07 01:27:19;;;;;;;6.18;2.70;;;15.70;99.90;;;;;;5076125;28;20048;-84
2023/08/07 01:30:09;;;;;;;6.03;2.60;;;15.70;99.90;;;;;;5062185;28;20044;-83
2023/08/07 01:32:53;;;;;;;5.57;2.50;;;15.70;99.90;;;;;;5074733;28;20128;-83
2023/08/07 01:35:25;;;;;;;6.45;2.58;;;15.60;99.90;;;;;;5075886;28;20044;-83
2023/08/07 01:37:54;;;;;;;5.63;2.70;;;15.60;99.90;;;;;;5074363;28;20144;-83
2023/08/07 01:40:21;;;;;;;4.63;2.42;;;15.50;99.90;;;;;;5075518;28;20036;-83
2023/08/07 01:42:47;;;;;;;8.55;2.83;;;15.50;99.90;;;;;;5074419;28;20556;-85
2023/08/07 01:45:13;;;;;;;5.40;2.65;;;15.50;99.90;;;;;;5073593;28;20048;-83
2023/08/07 01:47:39;;;;;;;9.95;2.65;;;15.50;99.90;;;;;;5055328;28;20055;-84
2023/08/07 01:50:06;;;;;;;4.72;2.70;;;15.40;99.90;;;;;;5073616;28;20037;-84
2023/08/07 01:52:32;;;;;;;6.45;2.75;;;15.40;99.90;;;;;;5072134;28;20091;-82
2023/08/07 01:54:58;;;;;;;6.68;2.75;;;15.40;99.90;;;;;;5086466;28;20103;-81
2023/08/07 01:57:23;;;;;;;7.53;2.90;;;15.40;99.90;;;;;;5070575;28;20421;-81
2023/08/07 01:59:49;;;;;;;10.50;3.20;;;15.30;99.90;;;;;;5072224;28;20051;-83
2023/08/07 02:02:15;;;;;;;5.88;3.00;;;15.30;99.90;;;;;;5069585;28;20371;-84
2023/08/07 02:04:40;;;;;;;6.35;2.88;;;15.30;99.90;;;;;;5071885;28;20048;-83
2023/08/07 02:07:06;;;;;;;7.20;3.40;;;15.20;99.90;;;;;;5071887;28;20127;-83
2023/08/07 02:09:32;;;;;;;6.88;3.67;;;15.20;99.90;;;;;;5072406;28;20079;-76
2023/08/07 02:11:57;;;;;;;7.65;3.33;;;15.20;99.90;;;;;;5039293;28;20032;-83
2023/08/07 02:14:23;;;;;;;7.35;3.30;;;15.10;99.90;;;;;;5073657;28;20051;-83
2023/08/07 02:16:49;;;;;;;7.82;3.05;;;15.10;99.90;;;;;;5071519;28;20082;-83
2023/08/07 02:19:14;;;;;;;10.85;3.58;;;15.00;99.90;;;;;;5069928;28;20078;-82
2023/08/07 02:21:40;;;;;;;13.05;3.30;;;15.00;99.90;;;;;;5073169;28;20486;-83
2023/08/07 02:24:06;;;;;;;9.52;3.58;;;15.00;99.90;;;;;;5072694;28;20093;-82
2023/08/07 02:26:31;;;;;;;9.68;3.40;;;15.00;99.90;;;;;;5072498;28;20074;-83
2023/08/07 02:28:57;;;;;;;5.60;3.00;;;15.00;99.90;;;;;;5075210;28;20048;-84
2023/08/07 02:31:22;;;;;;;15.82;3.78;;;15.00;99.90;;;;;;5073813;28;20057;-84
2023/08/07 02:33:48;;;;;;;7.95;3.58;;;15.00;99.90;;;;;;5074058;28;20041;-84
2023/08/07 02:36:14;;;;;;;12.10;3.75;;;15.00;99.90;;;;;;5072847;28;20127;-83
2023/08/07 02:38:39;;;;;;;9.02;3.40;;;15.00;99.90;;;;;;5073145;28;20053;-83
2023/08/07 02:41:05;;;;;;;11.65;3.75;;;15.10;99.90;;;;;;5055909;28;20066;-84
2023/08/07 02:43:32;;;;;;;9.57;3.90;;;15.10;99.90;;;;;;5073265;28;20516;-84
2023/08/07 02:45:58;;;;;;;14.10;3.58;;;15.10;99.90;;;;;;5071662;28;20455;-83
2023/08/07 02:48:24;;;;;;;12.35;3.75;;;15.10;99.90;;;;;;5073071;28;20131;-85
2023/08/07 02:50:51;;;;;;;10.45;3.50;;;15.10;99.90;;;;;;5073334;28;20036;-84
2023/08/07 02:53:17;;;;;;;10.40;3.05;;;15.10;99.90;;;;;;5072338;28;20449;-84
2023/08/07 02:55:44;;;;;;;11.82;3.88;;;15.20;99.90;;;;;;5064609;28;20138;-86
2023/08/07 02:58:09;;;;;;;14.38;3.35;;;15.20;99.90;;;;;;5070732;28;20040;-85
2023/08/07 03:00:35;;;;;;;11.70;2.97;;;15.20;99.90;;;;;;5071164;28;20044;-84
2023/08/07 03:03:01;;;;;;;11.55;3.45;;;15.20;99.90;;;;;;5072085;28;20064;-84
2023/08/07 03:05:27;;;;;;;10.52;3.00;;;15.20;99.90;;;;;;5071516;28;20097;-84
2023/08/07 03:07:52;;;;;;;7.50;3.10;;;15.30;99.90;;;;;;5070249;28;20045;-86
2023/08/07 03:10:19;;;;;;;4.95;2.85;;;15.30;99.90;;;;;;5053601;28;20048;-83
2023/08/07 03:12:44;;;;;;;7.35;2.90;;;15.20;99.90;;;;;;5071930;28;20040;-85
2023/08/07 03:15:10;;;;;;;8.80;3.03;;;15.30;99.90;;;;;;5072573;28;20075;-86
2023/08/07 03:17:36;;;;;;;9.02;3.35;;;15.20;99.90;;;;;;5072032;28;20036;-85
2023/08/07 03:20:03;;;;;;;7.85;3.15;;;15.20;99.90;;;;;;5071498;28;20043;-85
2023/08/07 03:22:29;;;;;;;9.23;3.03;;;15.20;99.90;;;;;;5072524;28;20044;-84
2023/08/07 03:24:55;;;;;;;6.90;3.15;;;15.20;99.90;;;;;;5071986;28;20170;-84
2023/08/07 03:27:20;;;;;;;8.13;3.13;;;15.20;99.90;;;;;;5073917;28;20064;-83
2023/08/07 03:29:46;;;;;;;10.45;2.80;;;15.30;99.90;;;;;;5072439;28;20047;-78
2023/08/07 03:32:12;;;;;;;6.43;2.42;;;15.30;99.90;;;;;;5073461;28;20123;-86
2023/08/07 03:34:37;;;;;;;8.50;2.58;;;15.30;99.90;;;;;;5072902;28;20049;-85
2023/08/07 03:37:04;;;;;;;6.07;2.30;;;15.30;99.90;;;;;;5055849;28;20053;-85
2023/08/07 03:39:29;;;;;;;5.80;2.70;;;15.30;99.90;;;;;;5072516;28;20040;-84
2023/08/07 03:41:55;;;;;;;11.98;2.45;;;15.30;99.90;;;;;;5078511;28;20047;-84
2023/08/07 03:44:21;;;;;;;8.95;2.30;;;15.30;99.90;;;;;;5062009;28;20072;-83
2023/08/07 03:46:46;;;;;;;6.78;2.30;;;15.30;99.90;;;;;;5073462;28;20052;-77
2023/08/07 03:49:12;;;;;;;10.68;2.78;;;15.30;99.90;;;;;;5072364;28;20470;-79
2023/08/07 03:51:38;;;;;;;8.57;2.83;;;15.30;99.90;;;;;;5087801;28;20048;-83
2023/08/07 03:54:03;;;;;;;9.50;2.72;;;15.30;99.90;;;;;;5055108;28;20498;-83
2023/08/07 03:56:35;;;;;;;14.55;3.15;;;15.30;99.90;;;;;;5067681;28;20490;-85
2023/08/07 03:59:02;;;;;;;11.63;3.22;;;15.30;99.90;;;;;;5071959;28;20541;-83
2023/08/07 04:01:27;;;;;;;11.90;3.30;;;15.20;99.90;;;;;;5056477;28;20044;-83
2023/08/07 04:03:53;;;;;;;18.73;3.97;;;15.30;99.90;;;;;;5076082;28;20040;-84
2023/08/07 04:06:20;;;;;;;13.10;3.60;;;15.30;99.90;;;;;;5076350;28;20041;-85
2023/08/07 04:08:46;;;;;;;13.52;3.55;;;15.20;99.90;;;;;;5075443;28;20131;-84
2023/08/07 04:11:12;;;;;;;14.25;3.83;;;15.30;99.90;;;;;;5074525;28;20520;-84
2023/08/07 04:13:38;;;;;;;13.68;3.88;;;15.20;99.90;;;;;;5077081;28;20052;-84
2023/08/07 04:16:04;;;;;;;15.43;3.97;;;15.20;99.90;;;;;;5076961;28;20098;-85
2023/08/07 04:18:33;;;;;;;17.98;3.72;;;15.30;99.90;;;;;;5077065;28;20496;-83
2023/08/07 04:21:00;;;;;;;12.18;3.45;;;15.30;99.90;;;;;;5075457;28;20045;-84
2023/08/07 04:23:25;;;;;;;14.95;3.83;;;15.20;99.90;;;;;;5077302;28;20053;-83
2023/08/07 04:25:52;;;;;;;14.55;3.70;;;15.20;99.90;;;;;;5075492;28;20089;-75
2023/08/07 04:28:18;;;;;;;12.25;3.78;;;15.20;99.90;;;;;;5076472;28;20045;-82
2023/08/07 04:30:45;;;;;;;16.70;4.28;;;15.20;99.90;;;;;;5078693;28;20097;-83
2023/08/07 04:33:11;;;;;;;19.77;3.50;;;15.20;99.90;;;;;;5057099;28;20369;-83
2023/08/07 04:35:36;;;;;;;22.67;3.72;;;15.20;99.90;;;;;;5075566;28;20501;-82
2023/08/07 04:38:02;;;;;;;11.68;3.92;;;15.20;99.90;;;;;;5106752;28;20084;-84
2023/08/07 04:40:29;;;;;;;17.67;3.60;;;15.20;99.90;;;;;;5071367;28;20078;-83
2023/08/07 04:42:55;;;;;;;17.10;3.70;;;15.10;99.90;;;;;;5073538;28;20048;-76
2023/08/07 04:45:21;;;;;;;17.73;3.97;;;15.10;99.90;;;;;;5075491;28;20401;-84
2023/08/07 04:47:46;;;;;;;15.40;3.97;;;15.10;99.90;;;;;;5077338;28;20032;-83
2023/08/07 04:50:12;;;;;;;12.98;3.80;;;15.10;99.90;;;;;;5075506;28;20114;-83
2023/08/07 04:52:38;;;;;;;10.00;3.20;;;15.10;99.90;;;;;;5073702;28;20048;-84
2023/08/07 04:55:04;;;;;;;11.95;4.03;;;15.00;99.90;;;;;;5070598;28;20037;-84
2023/08/07 04:57:30;;;;;;;13.70;3.65;;;15.10;99.90;;;;;;5074383;28;20442;-83
2023/08/07 04:59:56;;;;;;;10.65;3.70;;;15.00;99.90;;;;;;5057233;28;20094;-76
2023/08/07 05:02:22;;;;;;;16.83;4.03;;;15.00;99.90;;;;;;5073627;28;20085;-82
2023/08/07 05:04:47;;;;;;;15.70;3.47;;;15.00;99.90;;;;;;5073593;28;20051;-83
2023/08/07 05:07:13;;;;;;;14.40;3.45;;;15.10;99.90;;;;;;5058122;28;20048;-83
2023/08/07 05:09:39;;;;;;;12.45;3.42;;;15.20;99.90;;;;;;5076736;28;20045;-83
2023/08/07 05:12:06;;;;;;;13.38;3.83;;;15.20;99.90;;;;;;5072660;28;20070;-83
2023/08/07 05:14:32;;;;;;;10.00;3.45;;;15.40;99.90;;;;;;5068623;28;20041;-84
2023/08/07 05:16:59;;;;;;;10.73;3.70;;;15.50;99.90;;;;;;5074143;28;20390;-76
2023/08/07 05:19:25;;;;;;;13.63;4.10;;;15.60;99.90;;;;;;5064417;28;20408;-82
2023/08/07 05:21:51;;;;;;;16.70;4.10;;;15.60;99.90;;;;;;5074617;28;20052;-82
2023/08/07 05:24:17;;;;;;;17.60;4.60;;;15.70;99.90;;;;;;5075422;28;20444;-82
2023/08/07 05:26:43;;;;;;;15.40;3.90;;;15.80;99.90;;;;;;5075215;28;20117;-81
2023/08/07 05:29:09;;;;;;;16.60;4.25;;;15.80;99.90;;;;;;5072656;28;20045;-77
2023/08/07 05:31:36;;;;;;;14.70;3.78;;;15.80;99.90;;;;;;5073749;28;20044;-83
2023/08/07 05:34:02;;;;;;;18.83;4.47;;;15.80;99.90;;;;;;5074738;28;20080;-78
2023/08/07 05:36:28;;;;;;;10.55;3.55;;;16.00;99.90;;;;;;5105736;28;20095;-83
2023/08/07 05:38:54;;;;;;;12.45;4.18;;;16.60;99.90;;;;;;5073199;28;20040;-81
2023/08/07 05:41:20;;;;;;;14.10;3.85;;;17.50;99.90;;;;;;5073485;28;20063;-82
2023/08/07 05:43:46;;;;;;;12.40;3.92;;;18.30;99.90;;;;;;5090703;28;20041;-83
2023/08/07 05:46:11;;;;;;;14.82;3.55;;;18.40;99.90;;;;;;5074196;28;20051;-80
2023/08/07 05:48:37;;;;;;;12.68;3.42;;;18.40;99.90;;;;;;5089387;28;20040;-82
2023/08/07 05:51:03;;;;;;;13.93;3.55;;;18.50;99.90;;;;;;5054229;28;20135;-75
2023/08/07 05:53:29;;;;;;;9.45;3.08;;;18.50;99.90;;;;;;5073973;28;20079;-82
2023/08/07 05:55:55;;;;;;;11.15;3.03;;;18.10;99.90;;;;;;5102311;28;20124;-83
2023/08/07 05:58:21;;;;;;;11.20;3.42;;;17.90;99.90;;;;;;5077179;28;20040;-83
2023/08/07 06:00:47;;;;;;;11.73;3.40;;;17.40;99.90;;;;;;5082212;28;20098;-81
2023/08/07 06:03:12;;;;;;;11.82;3.60;;;17.10;99.90;;;;;;5084724;28;20485;-81
2023/08/07 06:05:38;;;;;;;12.75;3.05;;;17.00;99.90;;;;;;5061958;28;20048;-82
2023/08/07 06:08:04;;;;;;;9.48;3.13;;;16.70;99.90;;;;;;5059393;28;20045;-76
2023/08/07 06:10:30;;;;;;;12.13;3.33;;;16.70;99.90;;;;;;5039946;28;20048;-82
2023/08/07 06:12:55;;;;;;;8.40;2.95;;;17.20;99.90;;;;;;5073889;28;20048;-82
2023/08/07 06:15:21;;;;;;;9.85;3.10;;;17.70;99.90;;;;;;5073685;28;20045;-81
2023/08/07 06:17:47;;;;;;;7.28;2.50;;;17.80;99.90;;;;;;5056684;28;20048;-83
2023/08/07 06:20:14;;;;;;;9.43;2.53;;;17.60;99.90;;;;;;5074224;28;20072;-82
2023/08/07 06:22:40;;;;;;;6.15;2.58;;;17.30;99.90;;;;;;5056173;28;20043;-82
2023/08/07 06:25:06;;;;;;;14.23;3.03;;;17.20;99.90;;;;;;5073948;28;20052;-80
2023/08/07 06:27:32;;;;;;;10.30;2.80;;;17.00;99.90;;;;;;5072779;28;20091;-82
2023/08/07 06:29:58;;;;;;;13.65;2.67;;;16.80;99.90;;;;;;5055262;28;20040;-82
2023/08/07 06:32:26;;;;;;;10.40;2.83;;;16.70;99.90;;;;;;5054434;28;20037;-82
2023/08/07 06:34:52;;;;;;;9.20;2.85;;;16.80;99.90;;;;;;5074784;28;20044;-81
2023/08/07 06:37:18;;;;;;;10.07;3.20;;;17.60;99.90;;;;;;5073112;28;20079;-83
2023/08/07 06:39:44;;;;;;;11.27;2.90;;;18.40;99.90;;;;;;5079134;28;20052;-81
2023/08/07 06:42:09;;;;;;;5.57;2.30;;;18.30;99.90;;;;;;5071498;28;20459;-76
2023/08/07 06:44:35;;;;;;;10.75;3.05;;;17.90;99.90;;;;;;5071704;28;20040;-83
2023/08/07 06:47:01;;;;;;;10.07;3.08;;;17.50;99.90;;;;;;5073427;28;20186;-83
2023/08/07 06:49:26;;;;;;;9.23;3.00;;;17.20;99.90;;;;;;5055242;28;20398;-83
2023/08/07 06:51:52;;;;;;;14.57;3.28;;;16.90;99.90;;;;;;5070469;28;20434;-83
2023/08/07 06:54:18;;;;;;;13.07;3.00;;;16.70;99.90;;;;;;5072663;28;20068;-83
2023/08/07 06:56:44;;;;;;;9.98;2.78;;;16.70;99.90;;;;;;5059296;28;20115;-81
2023/08/07 06:59:10;;;;;;;12.43;3.47;;;16.70;99.90;;;;;;5072751;28;20520;-81
2023/08/07 07:01:36;;;;;;;12.00;3.22;;;16.60;99.90;;;;;;5073483;28;20045;-83
2023/08/07 07:04:02;;;;;;;12.57;3.13;;;16.80;99.90;;;;;;5071680;28;20410;-83
2023/08/07 07:06:28;;;;;;;15.43;3.17;;;16.60;99.90;;;;;;5071912;28;20385;-83
2023/08/07 07:08:56;;;;;;;13.25;3.28;;;16.60;99.90;;;;;;5073864;28;20055;-85
2023/08/07 07:11:24;;;;;;;13.18;3.13;;;16.50;99.90;;;;;;5088215;28;20547;-85
2023/08/07 07:13:50;;;;;;;16.23;3.45;;;16.50;99.90;;;;;;5073100;28;20535;-84
2023/08/07 07:16:21;;;;;;;13.18;3.08;;;16.40;99.90;;;;;;5054106;28;20045;-82
2023/08/07 07:18:55;;;;;;;13.40;3.50;;;16.30;99.90;;;;;;5086428;28;20150;-84
2023/08/07 07:21:21;;;;;;;11.07;3.05;;;16.30;99.90;;;;;;5061611;28;20095;-84
2023/08/07 07:23:47;;;;;;;12.20;3.30;;;16.30;99.90;;;;;;5073582;28;20040;-83
2023/08/07 07:26:12;;;;;;;11.70;3.45;;;16.30;99.90;;;;;;5073170;28;20045;-84
2023/08/07 07:28:38;;;;;;;10.38;3.20;;;16.30;99.90;;;;;;5074905;28;20048;-83
2023/08/07 07:31:04;;;;;;;12.82;3.97;;;16.50;99.90;;;;;;5072405;28;20127;-83
2023/08/07 07:33:31;;;;;;;6.40;2.70;;;16.60;99.90;;;;;;5055446;28;20102;-81
2023/08/07 07:35:56;;;;;;;12.35;2.83;;;16.80;99.90;;;;;;5075643;28;20059;-83
2023/08/07 07:38:22;;;;;;;10.32;2.88;;;17.00;99.90;;;;;;5057687;28;20052;-80
2023/08/07 07:40:48;;;;;;;11.73;3.67;;;17.10;99.90;;;;;;5076340;28;20095;-81
2023/08/07 07:43:14;;;;;;;9.80;3.05;;;17.20;99.90;;;;;;5069089;28;20137;-80
2023/08/07 07:45:39;;;;;;;11.25;3.15;;;17.20;99.90;;;;;;5070348;28;20044;-81
2023/08/07 07:48:08;;;;;;;9.82;2.67;;;17.50;99.90;;;;;;5075716;28;20040;-81
2023/08/07 07:50:34;;;;;;;10.13;2.35;;;18.30;99.90;;;;;;5075872;28;20105;-80
2023/08/07 07:52:59;;;;;;;9.95;2.75;;;18.80;99.90;;;;;;5074444;28;20173;-79
2023/08/07 07:55:25;;;;;;;18.58;3.17;;;18.90;99.90;;;;;;5052370;28;20055;-78
2023/08/07 07:57:51;;;;;;;16.48;2.55;;;18.90;99.90;;;;;;5074687;28;20049;-79
2023/08/07 08:00:18;;;;;;;10.85;3.03;;;18.60;99.90;;;;;;5073654;28;20048;-80
2023/08/07 08:02:43;;;;;;;7.82;2.80;;;18.10;99.90;;;;;;5073975;28;20119;-80
2023/08/07 08:05:12;;;;;;;9.43;3.22;;;17.80;99.90;;;;;;5077047;28;20157;-80
2023/08/07 08:07:41;;;;;;;6.47;2.75;;;17.40;99.90;;;;;;5075580;28;20063;-79
2023/08/07 08:10:08;;;;;;;10.43;3.33;;;17.20;99.90;;;;;;5109740;28;20055;-78
2023/08/07 08:12:34;;;;;;;12.75;3.08;;;17.10;99.90;;;;;;5072482;28;20059;-77
2023/08/07 08:15:00;;;;;;;8.05;3.15;;;17.10;99.90;;;;;;5076395;28;20092;-80
2023/08/07 08:17:26;;;;;;;10.00;3.28;;;17.00;99.90;;;;;;5070309;28;20076;-78
2023/08/07 08:19:51;;;;;;;11.05;3.22;;;17.00;99.90;;;;;;5086462;28;20041;-77
2023/08/07 08:22:18;;;;;;;9.70;3.03;;;17.00;99.90;;;;;;5078341;28;20079;-76
2023/08/07 08:24:44;;;;;;;9.90;2.65;;;17.10;99.90;;;;;;5074992;28;20093;-77
2023/08/07 08:27:10;;;;;;;16.42;3.40;;;17.50;99.90;;;;;;5076453;28;20082;-79
2023/08/07 08:29:35;;;;;;;12.35;3.40;;;18.50;99.90;;;;;;5074917;28;20401;-78
2023/08/07 08:32:01;;;;;;;11.57;3.00;;;19.40;99.90;;;;;;5057900;28;20041;-78
2023/08/07 08:34:27;;;;;;;11.43;3.17;;;19.70;99.90;;;;;;5075090;28;20047;-76
2023/08/07 08:36:53;;;;;;;11.27;2.70;;;19.50;99.90;;;;;;5108138;28;20089;-79
2023/08/07 08:39:18;;;;;;;12.63;2.92;;;19.10;99.90;;;;;;5074021;28;20053;-79
2023/08/07 08:41:47;;;;;;;7.88;2.42;;;18.90;99.90;;;;;;5074322;28;20118;-79
2023/08/07 08:44:14;;;;;;;9.40;2.70;;;19.10;99.90;;;;;;5074532;28;20045;-79
2023/08/07 08:46:42;;;;;;;14.23;3.05;;;19.80;99.90;;;;;;5074982;28;20044;-77
2023/08/07 08:49:10;;;;;;;11.15;3.00;;;20.70;99.90;;;;;;5074745;28;20041;-76
2023/08/07 08:51:37;;;;;;;11.85;2.70;;;21.10;99.90;;;;;;5057640;28;20125;-81
2023/08/07 08:54:03;;;;;;;9.20;2.65;;;21.50;99.90;;;;;;5073288;28;20040;-83
2023/08/07 08:56:30;;;;;;;11.18;2.60;;;22.00;99.10;;;;;;5062021;28;20037;-75
2023/08/07 08:58:56;;;;;;;9.15;2.60;;;22.40;98.60;;;;;;5075039;28;20043;-80
2023/08/07 09:01:24;;;;;;;8.45;2.70;;;22.80;98.00;;;;;;5073233;28;20402;-75
2023/08/07 09:03:52;;;;;;;8.95;2.40;;;23.20;98.90;;;;;;5069496;28;20040;-81
2023/08/07 09:06:19;;;;;;;6.88;2.63;;;23.50;98.50;;;;;;5074551;28;20072;-81
2023/08/07 09:08:46;;;;;;;8.13;2.42;;;23.90;98.30;;;;;;5074330;28;20044;-80
2023/08/07 09:11:13;;;;;;;9.05;2.50;;;23.50;96.80;;;;;;5073306;28;20048;-79
2023/08/07 09:13:40;;;;;;;10.48;2.90;;;23.40;96.90;;;;;;5073849;28;20052;-81
2023/08/07 09:16:10;;;;;;;10.65;3.05;;;23.30;97.20;;;;;;5076578;28;20055;-81
2023/08/07 09:18:35;;;;;;;8.15;2.75;;;23.10;97.30;;;;;;5070797;28;20045;-78
2023/08/07 09:21:02;;;;;;;9.63;2.67;;;23.30;98.10;;;;;;5074109;28;20052;-80
2023/08/07 09:23:28;;;;;;;10.60;2.58;;;22.90;98.60;;;;;;5066121;28;20355;-81
2023/08/07 09:26:04;;;;;;;8.18;2.40;;;22.70;98.40;;;;;;5072993;28;20120;-82
2023/08/07 09:28:32;;;;;;;8.52;3.03;;;23.00;97.70;;;;;;5069497;28;20048;-81
2023/08/07 09:30:58;;;;;;;8.98;2.80;;;23.30;97.10;;;;;;5054687;28;20079;-80
2023/08/07 09:33:30;;;;;;;10.50;3.13;;;23.10;97.60;;;;;;5071835;28;20048;-83
2023/08/07 09:36:01;;;;;;;13.02;2.83;;;22.70;98.00;;;;;;5073172;28;20127;-81
2023/08/07 09:38:32;;;;;;;11.88;3.05;;;22.30;97.70;;;;;;5073660;28;20048;-80
2023/08/07 09:41:03;;;;;;;9.02;2.50;;;22.30;97.70;;;;;;5071930;28;20120;-80
2023/08/07 09:43:29;;;;;;;9.70;2.53;;;22.50;98.00;;;;;;5062761;28;20040;-81
2023/08/07 09:46:07;;;;;;;8.45;2.45;;;22.70;96.80;;;;;;5076036;28;20043;-81
2023/08/07 09:48:40;;;;;;;9.80;2.53;;;22.60;96.40;;;;;;5073380;28;20081;-82
2023/08/07 09:51:06;;;;;;;10.85;2.55;;;22.70;96.90;;;;;;5056808;28;20048;-82
2023/08/07 09:53:31;;;;;;;7.97;2.78;;;22.70;97.10;;;;;;5074379;28;20119;-83
2023/08/07 09:55:58;;;;;;;7.57;2.70;;;22.40;97.00;;;;;;5068229;28;20048;-81
2023/08/07 09:58:24;;;;;;;9.60;2.75;;;22.20;97.90;;;;;;5071513;28;20037;-78
2023/08/07 10:00:53;;;;;;;8.57;2.70;;;21.80;98.20;;;;;;5071890;28;20124;-80
2023/08/07 10:03:19;;;;;;;11.30;2.75;;;21.50;98.50;;;;;;5073476;28;20078;-81
2023/08/07 10:05:45;;;;;;;8.18;2.85;;;21.20;98.70;;;;;;5072220;28;20044;-80
2023/08/07 10:08:11;;;;;;;9.13;2.85;;;20.80;98.90;;;;;;5072767;28;20097;-81
2023/08/07 10:10:38;;;;;;;9.95;2.80;;;20.50;99.70;;;;;;5055614;28;20133;-77
2023/08/07 10:13:04;;;;;;;9.73;3.00;;;20.30;99.90;;;;;;5074317;28;20145;-82
2023/08/07 10:15:32;;;;;;;13.88;3.50;;;20.20;99.90;;;;;;5073474;28;20091;-82
2023/08/07 10:17:58;;;;;;;10.55;3.05;;;20.30;99.90;;;;;;5074074;28;20040;-82
2023/08/07 10:20:28;;;;;;;12.52;3.65;;;20.30;99.90;;;;;;5073205;28;20076;-80
2023/08/07 10:22:59;;;;;;;9.75;3.05;;;20.40;99.90;;;;;;5072175;28;20081;-81
2023/08/07 10:25:27;;;;;;;11.02;2.90;;;20.30;99.90;;;;;;5073448;28;20055;-83
2023/08/07 10:27:55;;;;;;;13.13;3.03;;;20.30;99.90;;;;;;5065860;28;20049;-82
2023/08/07 10:30:23;;;;;;;11.05;3.10;;;20.40;99.90;;;;;;5073516;28;20505;-82
2023/08/07 10:32:50;;;;;;;11.32;2.90;;;20.40;99.90;;;;;;5078359;28;20063;-83
2023/08/07 10:35:33;;;;;;;12.55;3.08;;;20.40;99.90;;;;;;5075467;28;20106;-82
2023/08/07 10:38:08;;;;;;;9.55;2.60;;;20.30;99.90;;;;;;5052183;28;20048;-82
2023/08/07 10:40:34;;;;;;;11.27;3.03;;;20.10;99.90;;;;;;5060366;28;20061;-82
2023/08/07 10:43:13;;;;;;;9.00;2.92;;;20.10;99.90;;;;;;5054825;28;20076;-82
2023/08/07 10:45:39;;;;;;;9.35;2.60;;;19.90;99.90;;;;;;5074043;28;20036;-82
2023/08/07 10:48:04;;;;;;;9.90;2.42;;;19.80;99.90;;;;;;5066398;28;20072;-82
2023/08/07 10:50:35;;;;;;;6.97;2.25;;;19.90;99.80;;;;;;5074386;28;20044;-82
2023/08/07 10:53:03;;;;;;;4.38;1.85;;;20.10;99.40;;;;;;5069432;28;20136;-82
2023/08/07 10:55:46;;;;;;;5.97;2.22;;;20.10;99.00;;;;;;5056859;28;20048;-81
2023/08/07 10:58:26;;;;;;;4.85;1.90;;;20.20;98.30;;;;;;5063852;28;20131;-82
2023/08/07 11:01:12;;;;;;;9.90;2.28;;;20.20;98.50;;;;;;5066715;28;20045;-81
2023/08/07 11:03:42;;;;;;;5.43;1.90;;;20.10;98.10;;;;;;5074194;28;20040;-81
2023/08/07 11:06:10;;;;;;;12.57;2.65;;;20.10;99.30;;;;;;5070432;28;20049;-78
2023/08/07 11:08:36;;;;;;;12.15;2.85;;;20.10;99.90;;;;;;5054693;28;20045;-78
2023/08/07 11:11:06;;;;;;;6.45;2.10;;;20.10;99.90;;;;;;5076434;28;20067;-78
2023/08/07 11:13:33;;;;;;;8.13;2.40;;;20.10;99.90;;;;;;5074924;28;20124;-78
2023/08/07 11:16:02;;;;;;;7.10;2.10;;;20.00;99.90;;;;;;5073531;28;20043;-77
2023/08/07 11:18:30;;;;;;;8.15;2.35;;;20.00;99.90;;;;;;5074172;28;20375;-75
2023/08/07 11:20:58;;;;;;;9.88;2.72;;;19.90;99.90;;;;;;5076937;28;20036;-78
2023/08/07 11:23:25;;;;;;;9.35;2.28;;;19.70;99.90;;;;;;5058392;28;20052;-72
2023/08/07 11:25:52;;;;;;;8.27;2.35;;;19.60;99.90;;;;;;5072146;28;20151;-73
2023/08/07 11:28:19;;;;;;;9.43;2.67;;;19.40;99.90;;;;;;5074897;28;20040;-74
2023/08/07 11:30:50;;;;;;;6.43;2.47;;;19.30;99.90;;;;;;5075083;28;20051;-75
2023/08/07 11:33:18;;;;;;;8.23;2.28;;;19.10;99.90;;;;;;5076412;28;20041;-76
2023/08/07 11:35:44;;;;;;;8.55;2.38;;;19.10;99.90;;;;;;5073902;28;20083;-75
2023/08/07 11:38:11;;;;;;;8.18;2.20;;;19.10;99.90;;;;;;5074581;28;20930;-74
2023/08/07 11:40:37;;;;;;;9.88;2.60;;;19.10;99.90;;;;;;5075144;28;20056;-75
2023/08/07 11:43:02;;;;;;;7.75;2.40;;;19.20;99.90;;;;;;5074621;28;20044;-74
2023/08/07 11:45:28;;;;;;;6.18;2.40;;;19.20;99.90;;;;;;5076280;28;20052;-75
2023/08/07 11:47:56;;;;;;;7.63;2.20;;;19.30;99.90;;;;;;5074871;28;20070;-75
2023/08/07 11:50:25;;;;;;;4.28;1.85;;;19.30;99.90;;;;;;5074004;28;20482;-75
2023/08/07 11:52:50;;;;;;;4.70;1.67;;;19.20;99.90;;;;;;5074464;28;20072;-77
2023/08/07 11:55:18;;;;;;;3.22;1.60;;;19.10;99.90;;;;;;5075097;28;20076;-74
2023/08/07 11:57:46;;;;;;;5.85;1.50;;;19.10;99.90;;;;;;5073062;28;20045;-75
2023/08/07 12:00:15;;;;;;;4.47;1.73;;;19.10;99.90;;;;;;5072807;28;20638;-75
2023/08/07 12:02:44;;;;;;;6.70;2.30;;;19.20;99.90;;;;;;5072809;28;20064;-76
2023/08/07 12:05:11;;;;;;;7.18;2.10;;;19.20;99.90;;;;;;5069869;28;20045;-74
2023/08/07 12:07:40;;;;;;;5.57;2.15;;;19.20;99.90;;;;;;5065411;28;20044;-73
2023/08/07 12:10:10;;;;;;;7.80;2.50;;;19.30;99.90;;;;;;5071565;28;20060;-76
2023/08/07 12:12:37;;;;;;;8.93;2.45;;;19.30;99.90;;;;;;5072460;28;20060;-75
2023/08/07 12:15:07;;;;;;;4.65;2.10;;;19.10;99.90;;;;;;5073774;28;20397;-76
2023/08/07 12:17:33;;;;;;;7.95;2.15;;;18.90;99.90;;;;;;5074409;28;20040;-75
2023/08/07 12:19:59;;;;;;;5.43;1.70;;;18.90;99.90;;;;;;5073359;28;20051;-72
2023/08/07 12:22:28;;;;;;;7.20;2.10;;;18.80;99.90;;;;;;5072057;28;20051;-75
2023/08/07 12:24:54;;;;;;;7.85;2.03;;;18.80;99.90;;;;;;5075160;28;20067;-74
2023/08/07 12:27:20;;;;;;;7.03;2.53;;;18.80;99.90;;;;;;5074671;28;20040;-76
2023/08/07 12:29:46;;;;;;;6.10;2.05;;;18.90;99.90;;;;;;5073129;28;20044;-74
2023/08/07 12:32:11;;;;;;;8.23;2.05;;;18.90;99.90;;;;;;5054812;28;20139;-75
2023/08/07 12:34:40;;;;;;;5.95;2.20;;;19.10;99.90;;;;;;5071847;28;20159;-76
2023/08/07 12:37:06;;;;;;;5.35;2.38;;;19.30;99.90;;;;;;5066446;28;20082;-76
2023/08/07 12:39:32;;;;;;;9.50;2.20;;;19.40;99.90;;;;;;5071747;28;20057;-73
2023/08/07 12:41:58;;;;;;;11.70;2.85;;;19.60;99.90;;;;;;5072718;28;20047;-78